This is the latest recevied weather packets stored in our database for station/object KB1RMA-4. If no packets are shown the sender has not sent any weather packets the latest 1 day(s).
| Time | Temp. | Humidity | Pressure | Rain* | Wind** | Luminosity | Snow |
|---|---|---|---|---|---|---|---|
| 1778029337 | 20° C | 50% | 1008.4 hPa | 0 mm | 0.45 m/s, 187° | 0 W/m² | - |
| 1778029034 | 20° C | 49% | 1008.6 hPa | 0 mm | 1.34 m/s, 243° | 0 W/m² | - |
| 1778028730 | 20.56° C | 49% | 1008.5 hPa | 0 mm | 0 m/s | 0 W/m² | - |
| 1778028426 | 20.56° C | 49% | 1008.5 hPa | 0 mm | 0.45 m/s, 279° | 0 W/m² | - |
| 1778028124 | 20.56° C | 48% | 1008.2 hPa | 0 mm | 0 m/s | 0 W/m² | - |
| 1778027820 | 20.56° C | 48% | 1008.3 hPa | 0 mm | 0.89 m/s, 260° | 0 W/m² | - |
| 1778027517 | 21.11° C | 47% | 1008.1 hPa | 0 mm | 0.89 m/s, 264° | 0 W/m² | - |
| 1778027212 | 21.11° C | 47% | 1007.9 hPa | 0 mm | 1.34 m/s, 175° | 0 W/m² | - |
| 1778026909 | 21.11° C | 46% | 1007.9 hPa | 0 mm | 1.34 m/s, 240° | 0 W/m² | - |
| 1778026604 | 21.11° C | 46% | 1007.7 hPa | 0 mm | 1.34 m/s, 260° | 0 W/m² | - |
| 1778026302 | 21.67° C | 46% | 1007.4 hPa | 0 mm | 0 m/s | 0 W/m² | - |
| 1778025999 | 21.67° C | 45% | 1007.5 hPa | 0 mm | 1.34 m/s, 241° | 0 W/m² | - |
| 1778025696 | 21.67° C | 45% | 1007.4 hPa | 0 mm | 0.89 m/s, 248° | 0 W/m² | - |
| 1778025394 | 21.67° C | 45% | 1007.3 hPa | 0 mm | 0.89 m/s, 257° | 0 W/m² | - |
| 1778025091 | 22.22° C | 45% | 1007 hPa | 0 mm | 0.45 m/s, 80° | 0 W/m² | - |
| 1778024788 | 22.22° C | 44% | 1007.2 hPa | 0 mm | 1.34 m/s, 134° | 2 W/m² | - |
| 1778024485 | 22.22° C | 44% | 1007.2 hPa | 0 mm | 1.34 m/s, 225° | 3 W/m² | - |
| 1778024182 | 22.22° C | 44% | 1007.1 hPa | 0 mm | 0 m/s | 7 W/m² | - |
| 1778023880 | 22.78° C | 44% | 1006.9 hPa | 0 mm | 0.45 m/s, 270° | 10 W/m² | - |
| 1778023577 | 22.78° C | 43% | 1007 hPa | 0 mm | 1.34 m/s, 233° | 13 W/m² | - |
| 1778023275 | 22.78° C | 43% | 1006.9 hPa | 0 mm | 0.45 m/s, 226° | 16 W/m² | - |
| 1778022971 | 22.78° C | 43% | 1006.9 hPa | 0 mm | 0.89 m/s, 273° | 23 W/m² | - |
| 1778022670 | 23.33° C | 43% | 1006.9 hPa | 0 mm | 0.45 m/s, 284° | 28 W/m² | - |
| 1778022368 | 23.33° C | 42% | 1006.6 hPa | 0 mm | 0.45 m/s, 242° | 33 W/m² | - |
| 1778022063 | 23.33° C | 42% | 1006.5 hPa | 0 mm | 0.89 m/s, 207° | 44 W/m² | - |
* Rain latest hour (hover to see other rain measurements)
** Current wind speed in m/s (hover to see current wind gust speed)